sensor_id;sensor_type;location;lat;lon;timestamp;pressure;altitude;pressure_sealevel;temperature;humidity
76106;BME280;64832;45.274;5.880;2023-01-16T00:00:28;98421.47;;;19.63;53.57
76106;BME280;64832;45.274;5.880;2023-01-16T00:02:54;98410.84;;;19.61;53.56
76106;BME280;64832;45.274;5.880;2023-01-16T00:05:19;98411.94;;;19.60;53.63
76106;BME280;64832;45.274;5.880;2023-01-16T00:07:44;98404.66;;;19.66;53.67
76106;BME280;64832;45.274;5.880;2023-01-16T08:19:35;97305.31;;;15.96;52.66
76106;BME280;64832;45.274;5.880;2023-01-16T08:22:01;97280.38;;;16.15;52.97
76106;BME280;64832;45.274;5.880;2023-01-16T08:24:27;97273.69;;;16.33;53.19
76106;BME280;64832;45.274;5.880;2023-01-16T08:26:52;97257.31;;;16.44;53.32
76106;BME280;64832;45.274;5.880;2023-01-16T08:29:18;97261.16;;;16.54;53.16
76106;BME280;64832;45.274;5.880;2023-01-16T08:31:43;97254.97;;;16.58;53.00
76106;BME280;64832;45.274;5.880;2023-01-16T08:34:09;97249.31;;;16.65;53.34
76106;BME280;64832;45.274;5.880;2023-01-16T08:36:34;97253.09;;;16.69;53.12
76106;BME280;64832;45.274;5.880;2023-01-16T08:39:00;97236.66;;;16.70;53.29
76106;BME280;64832;45.274;5.880;2023-01-16T08:41:25;97241.53;;;16.73;53.15
76106;BME280;64832;45.274;5.880;2023-01-16T08:44:10;97247.47;;;16.75;53.57
76106;BME280;64832;45.274;5.880;2023-01-16T08:46:57;97225.34;;;16.78;53.38
76106;BME280;64832;45.274;5.880;2023-01-16T08:49:42;97228.03;;;16.83;53.27
76106;BME280;64832;45.274;5.880;2023-01-16T08:52:27;97226.69;;;16.86;53.26
76106;BME280;64832;45.274;5.880;2023-01-16T08:54:58;97227.78;;;16.90;53.31
76106;BME280;64832;45.274;5.880;2023-01-16T08:57:24;97218.88;;;16.94;53.18
76106;BME280;64832;45.274;5.880;2023-01-16T08:59:50;97208.38;;;16.98;53.41
76106;BME280;64832;45.274;5.880;2023-01-16T09:02:15;97216.47;;;17.03;53.43
76106;BME280;64832;45.274;5.880;2023-01-16T09:04:41;97211.59;;;17.05;53.09
76106;BME280;64832;45.274;5.880;2023-01-16T09:07:07;97201.06;;;17.09;53.36
76106;BME280;64832;45.274;5.880;2023-01-16T09:09:32;97214.31;;;17.10;53.10
76106;BME280;64832;45.274;5.880;2023-01-16T09:11:59;97214.88;;;17.17;53.26
76106;BME280;64832;45.274;5.880;2023-01-16T09:14:43;97204.88;;;17.23;53.31
76106;BME280;64832;45.274;5.880;2023-01-16T09:17:09;97207.81;;;17.26;52.89
76106;BME280;64832;45.274;5.880;2023-01-16T09:19:35;97190.25;;;17.29;52.52
76106;BME280;64832;45.274;5.880;2023-01-16T09:22:01;97199.47;;;17.33;53.00
76106;BME280;64832;45.274;5.880;2023-01-16T09:24:27;97193.25;;;17.32;52.68
76106;BME280;64832;45.274;5.880;2023-01-16T09:26:52;97203.25;;;17.37;52.55
76106;BME280;64832;45.274;5.880;2023-01-16T09:29:17;97196.50;;;17.39;52.75
76106;BME280;64832;45.274;5.880;2023-01-16T09:31:43;97194.31;;;17.41;52.89
76106;BME280;64832;45.274;5.880;2023-01-16T09:34:08;97201.91;;;17.44;52.91
76106;BME280;64832;45.274;5.880;2023-01-16T09:36:34;97189.19;;;17.45;52.63
76106;BME280;64832;45.274;5.880;2023-01-16T09:38:59;97194.84;;;17.48;52.70
76106;BME280;64832;45.274;5.880;2023-01-16T09:41:25;97204.03;;;17.52;52.93
76106;BME280;64832;45.274;5.880;2023-01-16T09:44:12;97195.97;;;17.57;52.55
76106;BME280;64832;45.274;5.880;2023-01-16T09:46:43;97187.84;;;17.63;52.88
76106;BME280;64832;45.274;5.880;2023-01-16T09:49:23;97187.03;;;17.67;52.64
76106;BME280;64832;45.274;5.880;2023-01-16T09:51:56;97188.09;;;17.71;52.84
76106;BME280;64832;45.274;5.880;2023-01-16T09:54:49;97184.03;;;17.74;52.70
76106;BME280;64832;45.274;5.880;2023-01-16T09:57:36;97171.59;;;17.78;52.46
76106;BME280;64832;45.274;5.880;2023-01-16T10:00:24;97172.41;;;17.83;52.71
76106;BME280;64832;45.274;5.880;2023-01-16T10:02:52;97162.09;;;17.85;52.72
76106;BME280;64832;45.274;5.880;2023-01-16T10:05:18;97155.34;;;17.88;52.24
76106;BME280;64832;45.274;5.880;2023-01-16T10:10:51;97149.09;;;17.97;52.10
76106;BME280;64832;45.274;5.880;2023-01-16T10:16:15;97139.06;;;18.03;52.12
76106;BME280;64832;45.274;5.880;2023-01-16T10:29:59;97102.72;;;18.19;52.16
76106;BME280;64832;45.274;5.880;2023-01-16T10:32:38;97109.47;;;18.22;51.86
76106;BME280;64832;45.274;5.880;2023-01-16T10:35:37;97109.44;;;18.27;51.96
76106;BME280;64832;45.274;5.880;2023-01-16T10:38:40;97101.59;;;18.30;52.09
76106;BME280;64832;45.274;5.880;2023-01-16T10:41:19;97099.41;;;18.32;51.86
76106;BME280;64832;45.274;5.880;2023-01-16T10:44:15;97080.19;;;18.34;51.93
76106;BME280;64832;45.274;5.880;2023-01-16T10:47:03;97080.72;;;18.36;51.96
76106;BME280;64832;45.274;5.880;2023-01-16T10:49:51;97079.59;;;18.37;51.62
76106;BME280;64832;45.274;5.880;2023-01-16T10:52:17;97076.91;;;18.37;51.47
76106;BME280;64832;45.274;5.880;2023-01-16T10:54:42;97075.00;;;18.37;51.52
76106;BME280;64832;45.274;5.880;2023-01-16T10:57:18;97070.94;;;18.40;51.22
76106;BME280;64832;45.274;5.880;2023-01-16T10:59:45;97050.38;;;18.39;51.33
76106;BME280;64832;45.274;5.880;2023-01-16T11:02:32;97053.88;;;18.39;51.02
76106;BME280;64832;45.274;5.880;2023-01-16T11:04:58;97052.28;;;18.38;51.24
76106;BME280;64832;45.274;5.880;2023-01-16T11:07:27;97041.16;;;18.40;51.18
76106;BME280;64832;45.274;5.880;2023-01-16T11:09:54;97036.84;;;18.39;51.13
76106;BME280;64832;45.274;5.880;2023-01-16T11:12:26;97046.13;;;18.28;46.95
76106;BME280;64832;45.274;5.880;2023-01-16T11:15:20;97026.41;;;17.68;45.94
76106;BME280;64832;45.274;5.880;2023-01-16T11:18:22;97031.59;;;17.44;49.42
76106;BME280;64832;45.274;5.880;2023-01-16T11:20:53;97022.94;;;17.57;50.44
76106;BME280;64832;45.274;5.880;2023-01-16T11:23:21;97017.47;;;17.73;50.65
76106;BME280;64832;45.274;5.880;2023-01-16T11:25:49;97015.53;;;17.83;50.52
76106;BME280;64832;45.274;5.880;2023-01-16T11:28:22;97014.94;;;17.91;50.48
76106;BME280;64832;45.274;5.880;2023-01-16T11:30:53;97016.53;;;17.97;50.31
76106;BME280;64832;45.274;5.880;2023-01-16T11:33:22;97012.16;;;18.01;50.33
76106;BME280;64832;45.274;5.880;2023-01-16T11:35:57;97022.16;;;18.06;50.33
76106;BME280;64832;45.274;5.880;2023-01-16T11:38:24;97016.47;;;18.07;50.17
76106;BME280;64832;45.274;5.880;2023-01-16T11:40:55;96996.16;;;18.10;50.24
76106;BME280;64832;45.274;5.880;2023-01-16T11:43:23;97004.00;;;18.11;50.38
76106;BME280;64832;45.274;5.880;2023-01-16T11:46:37;96998.56;;;18.16;50.21
76106;BME280;64832;45.274;5.880;2023-01-16T11:49:25;96991.25;;;18.17;50.58
76106;BME280;64832;45.274;5.880;2023-01-16T11:51:53;96999.38;;;18.17;50.25
76106;BME280;64832;45.274;5.880;2023-01-16T11:54:26;96985.53;;;18.18;50.43
76106;BME280;64832;45.274;5.880;2023-01-16T12:05:28;96993.88;;;18.27;50.39
76106;BME280;64832;45.274;5.880;2023-01-16T12:14:27;96968.91;;;18.35;50.50
76106;BME280;64832;45.274;5.880;2023-01-16T12:20:16;96961.03;;;18.39;50.61
76106;BME280;64832;45.274;5.880;2023-01-16T12:23:15;96967.22;;;18.44;50.64
76106;BME280;64832;45.274;5.880;2023-01-16T12:26:06;96940.69;;;18.46;50.80
76106;BME280;64832;45.274;5.880;2023-01-16T12:31:37;96947.44;;;18.49;50.96
76106;BME280;64832;45.274;5.880;2023-01-16T12:59:41;96878.00;;;18.63;53.18
76106;BME280;64832;45.274;5.880;2023-01-16T13:04:41;96868.25;;;18.62;53.33
76106;BME280;64832;45.274;5.880;2023-01-16T13:07:14;96869.88;;;18.63;53.41
76106;BME280;64832;45.274;5.880;2023-01-16T13:09:54;96859.03;;;18.63;53.48
76106;BME280;64832;45.274;5.880;2023-01-16T13:12:42;96857.16;;;18.63;53.31
76106;BME280;64832;45.274;5.880;2023-01-16T13:15:31;96859.03;;;18.63;53.59
76106;BME280;64832;45.274;5.880;2023-01-16T13:18:11;96855.75;;;18.66;53.51
76106;BME280;64832;45.274;5.880;2023-01-16T13:20:39;96851.44;;;18.65;53.63
76106;BME280;64832;45.274;5.880;2023-01-16T13:23:30;96846.25;;;18.68;53.56
76106;BME280;64832;45.274;5.880;2023-01-16T13:26:00;96845.44;;;18.68;53.45
76106;BME280;64832;45.274;5.880;2023-01-16T13:31:32;96841.09;;;18.72;53.49
76106;BME280;64832;45.274;5.880;2023-01-16T13:34:31;96832.66;;;18.73;53.51
76106;BME280;64832;45.274;5.880;2023-01-16T13:37:07;96842.97;;;18.71;53.60
76106;BME280;64832;45.274;5.880;2023-01-16T13:43:03;96830.44;;;18.75;53.49
76106;BME280;64832;45.274;5.880;2023-01-16T13:45:49;96819.63;;;18.75;53.57
76106;BME280;64832;45.274;5.880;2023-01-16T13:48:20;96829.06;;;18.78;53.71
76106;BME280;64832;45.274;5.880;2023-01-16T13:50:52;96840.44;;;18.80;53.51
76106;BME280;64832;45.274;5.880;2023-01-16T13:53:18;96837.19;;;18.78;53.54
76106;BME280;64832;45.274;5.880;2023-01-16T13:55:48;96844.22;;;18.79;53.66
76106;BME280;64832;45.274;5.880;2023-01-16T13:58:20;96849.31;;;18.86;53.48
76106;BME280;64832;45.274;5.880;2023-01-16T14:00:55;96859.28;;;18.90;53.57
76106;BME280;64832;45.274;5.880;2023-01-16T14:03:27;96850.56;;;18.93;53.35
76106;BME280;64832;45.274;5.880;2023-01-16T14:06:16;96852.41;;;18.98;53.27
76106;BME280;64832;45.274;5.880;2023-01-16T14:08:50;96848.31;;;19.00;53.31
76106;BME280;64832;45.274;5.880;2023-01-16T14:17:21;96854.25;;;19.02;53.06
76106;BME280;64832;45.274;5.880;2023-01-16T14:19:56;96852.34;;;19.03;53.02
76106;BME280;64832;45.274;5.880;2023-01-16T14:22:24;96851.25;;;19.04;53.00
76106;BME280;64832;45.274;5.880;2023-01-16T14:24:56;96865.63;;;19.04;52.88
76106;BME280;64832;45.274;5.880;2023-01-16T14:27:28;96859.09;;;19.05;53.06
76106;BME280;64832;45.274;5.880;2023-01-16T14:30:04;96853.09;;;19.08;53.04
76106;BME280;64832;45.274;5.880;2023-01-16T14:32:32;96839.53;;;19.08;53.09
76106;BME280;64832;45.274;5.880;2023-01-16T14:35:03;96846.00;;;19.12;52.92
76106;BME280;64832;45.274;5.880;2023-01-16T14:37:38;96840.00;;;19.15;53.05
76106;BME280;64832;45.274;5.880;2023-01-16T14:42:48;96841.31;;;19.18;52.68
76106;BME280;64832;45.274;5.880;2023-01-16T14:45:34;96842.72;;;19.15;52.67
76106;BME280;64832;45.274;5.880;2023-01-16T14:56:48;96859.22;;;19.19;52.47
76106;BME280;64832;45.274;5.880;2023-01-16T14:59:17;96855.38;;;19.20;52.28
76106;BME280;64832;45.274;5.880;2023-01-16T15:07:42;96862.94;;;19.23;51.96
76106;BME280;64832;45.274;5.880;2023-01-16T15:10:17;96866.44;;;19.23;51.92
76106;BME280;64832;45.274;5.880;2023-01-16T15:12:44;96863.75;;;19.23;52.03
76106;BME280;64832;45.274;5.880;2023-01-16T15:15:24;96874.00;;;19.26;51.84
76106;BME280;64832;45.274;5.880;2023-01-16T15:17:52;96873.19;;;19.26;51.74
76106;BME280;64832;45.274;5.880;2023-01-16T15:20:37;96873.19;;;19.26;51.74
76106;BME280;64832;45.274;5.880;2023-01-16T15:23:33;96871.00;;;19.28;51.84
76106;BME280;64832;45.274;5.880;2023-01-16T15:31:30;96880.44;;;19.30;51.71
76106;BME280;64832;45.274;5.880;2023-01-16T15:34:16;96881.25;;;19.31;51.59
76106;BME280;64832;45.274;5.880;2023-01-16T15:36:44;96875.03;;;19.30;51.63
76106;BME280;64832;45.274;5.880;2023-01-16T15:41:48;96879.09;;;19.33;51.74
76106;BME280;64832;45.274;5.880;2023-01-16T15:44:37;96890.72;;;19.33;51.74
76106;BME280;64832;45.274;5.880;2023-01-16T15:52:37;96877.47;;;19.32;50.82
76106;BME280;64832;45.274;5.880;2023-01-16T15:55:10;96879.59;;;19.35;50.68
76106;BME280;64832;45.274;5.880;2023-01-16T15:57:36;96874.44;;;19.33;50.39
76106;BME280;64832;45.274;5.880;2023-01-16T16:00:02;96876.06;;;19.34;50.17
76106;BME280;64832;45.274;5.880;2023-01-16T16:02:29;96883.91;;;19.36;50.08
76106;BME280;64832;45.274;5.880;2023-01-16T16:05:00;96883.13;;;19.35;50.13
76106;BME280;64832;45.274;5.880;2023-01-16T16:07:27;96884.97;;;19.40;50.13
76106;BME280;64832;45.274;5.880;2023-01-16T16:09:56;96895.47;;;19.47;50.22
76106;BME280;64832;45.274;5.880;2023-01-16T16:12:23;96895.41;;;19.52;50.03
76106;BME280;64832;45.274;5.880;2023-01-16T16:15:02;96898.84;;;19.57;49.84
76106;BME280;64832;45.274;5.880;2023-01-16T16:18:02;96910.13;;;19.64;50.01
76106;BME280;64832;45.274;5.880;2023-01-16T16:20:38;96909.28;;;19.69;50.13
76106;BME280;64832;45.274;5.880;2023-01-16T16:23:14;96904.84;;;19.73;49.83
76106;BME280;64832;45.274;5.880;2023-01-16T16:25:57;96907.50;;;19.78;49.84
76106;BME280;64832;45.274;5.880;2023-01-16T16:28:32;96900.16;;;19.78;49.76
76106;BME280;64832;45.274;5.880;2023-01-16T16:36:27;96903.34;;;19.85;49.60
76106;BME280;64832;45.274;5.880;2023-01-16T16:38:55;96898.41;;;19.87;49.47
76106;BME280;64832;45.274;5.880;2023-01-16T16:44:22;96893.22;;;19.91;49.60
76106;BME280;64832;45.274;5.880;2023-01-16T16:46:48;96900.22;;;19.92;49.44
76106;BME280;64832;45.274;5.880;2023-01-16T16:51:39;96900.16;;;19.97;49.77
76106;BME280;64832;45.274;5.880;2023-01-16T16:54:10;96903.66;;;19.98;49.51
76106;BME280;64832;45.274;5.880;2023-01-16T16:56:43;96898.25;;;19.98;49.36
76106;BME280;64832;45.274;5.880;2023-01-16T16:59:22;96887.97;;;19.94;49.45
76106;BME280;64832;45.274;5.880;2023-01-16T17:01:51;96885.84;;;19.91;49.24
76106;BME280;64832;45.274;5.880;2023-01-16T17:04:18;96889.09;;;19.93;49.36
76106;BME280;64832;45.274;5.880;2023-01-16T17:06:45;96891.50;;;19.95;49.29
76106;BME280;64832;45.274;5.880;2023-01-16T17:09:15;96888.50;;;19.97;49.57
76106;BME280;64832;45.274;5.880;2023-01-16T17:11:44;96876.84;;;19.96;49.33
76106;BME280;64832;45.274;5.880;2023-01-16T17:14:10;96885.78;;;19.97;49.35
76106;BME280;64832;45.274;5.880;2023-01-16T17:16:37;96878.97;;;19.99;49.39
76106;BME280;64832;45.274;5.880;2023-01-16T17:21:42;96873.75;;;20.03;49.52
76106;BME280;64832;45.274;5.880;2023-01-16T17:24:14;96871.84;;;20.03;49.53
76106;BME280;64832;45.274;5.880;2023-01-16T17:26:40;96866.91;;;20.05;49.39
76106;BME280;64832;45.274;5.880;2023-01-16T17:29:06;96875.06;;;20.05;49.44
76106;BME280;64832;45.274;5.880;2023-01-16T17:31:32;96878.88;;;20.04;49.39
76106;BME280;64832;45.274;5.880;2023-01-16T17:33:59;96876.16;;;20.04;49.27
76106;BME280;64832;45.274;5.880;2023-01-16T17:36:25;96862.69;;;19.99;49.32
76106;BME280;64832;45.274;5.880;2023-01-16T17:38:52;96874.28;;;20.05;49.21
76106;BME280;64832;45.274;5.880;2023-01-16T17:41:23;96869.94;;;20.04;49.19
76106;BME280;64832;45.274;5.880;2023-01-16T17:44:20;96864.59;;;19.99;49.26
76106;BME280;64832;45.274;5.880;2023-01-16T17:47:05;96880.28;;;20.02;49.24
76106;BME280;64832;45.274;5.880;2023-01-16T17:49:31;96868.31;;;20.03;49.10
76106;BME280;64832;45.274;5.880;2023-01-16T17:51:57;96869.13;;;20.03;49.17
76106;BME280;64832;45.274;5.880;2023-01-16T17:54:22;96863.69;;;20.03;49.15
76106;BME280;64832;45.274;5.880;2023-01-16T17:57:06;96862.38;;;20.01;49.19
76106;BME280;64832;45.274;5.880;2023-01-16T17:59:32;96864.00;;;20.02;49.10
76106;BME280;64832;45.274;5.880;2023-01-16T18:01:57;96869.44;;;20.02;49.01
76106;BME280;64832;45.274;5.880;2023-01-16T18:04:22;96855.84;;;20.02;49.02
76106;BME280;64832;45.274;5.880;2023-01-16T18:06:48;96851.25;;;20.02;49.12
76106;BME280;64832;45.274;5.880;2023-01-16T18:09:14;96843.09;;;20.02;49.18
76106;BME280;64832;45.274;5.880;2023-01-16T18:11:42;96848.53;;;20.02;49.22
76106;BME280;64832;45.274;5.880;2023-01-16T18:14:27;96843.09;;;20.02;49.23
76106;BME280;64832;45.274;5.880;2023-01-16T18:17:15;96839.56;;;20.02;49.25
76106;BME280;64832;45.274;5.880;2023-01-16T18:19:58;96855.03;;;20.01;49.25
76106;BME280;64832;45.274;5.880;2023-01-16T18:22:29;96850.72;;;20.00;49.47
76106;BME280;64832;45.274;5.880;2023-01-16T18:24:56;96846.41;;;19.99;49.43
76106;BME280;64832;45.274;5.880;2023-01-16T18:27:22;96858.03;;;20.00;49.41
76106;BME280;64832;45.274;5.880;2023-01-16T18:29:48;96857.25;;;19.99;49.39
76106;BME280;64832;45.274;5.880;2023-01-16T18:32:14;96865.41;;;19.99;49.42
76106;BME280;64832;45.274;5.880;2023-01-16T18:34:59;96863.47;;;20.00;49.55
76106;BME280;64832;45.274;5.880;2023-01-16T18:39:56;96863.78;;;19.98;49.67
76106;BME280;64832;45.274;5.880;2023-01-16T18:42:41;96854.31;;;19.96;49.68
76106;BME280;64832;45.274;5.880;2023-01-16T18:45:25;96860.84;;;19.94;49.66
76106;BME280;64832;45.274;5.880;2023-01-16T18:48:10;96850.28;;;19.93;49.17
76106;BME280;64832;45.274;5.880;2023-01-16T18:50:54;96847.06;;;19.91;49.57
76106;BME280;64832;45.274;5.880;2023-01-16T18:53:42;96844.38;;;19.91;49.52
76106;BME280;64832;45.274;5.880;2023-01-16T18:56:30;96843.84;;;19.89;49.66
76106;BME280;64832;45.274;5.880;2023-01-16T18:59:18;96835.69;;;19.89;49.82
76106;BME280;64832;45.274;5.880;2023-01-16T19:04:43;96823.25;;;19.88;49.51
76106;BME280;64832;45.274;5.880;2023-01-16T19:07:11;96821.63;;;19.87;49.57
76106;BME280;64832;45.274;5.880;2023-01-16T19:09:40;96827.34;;;19.85;49.64
76106;BME280;64832;45.274;5.880;2023-01-16T19:12:08;96824.34;;;19.87;49.75
76106;BME280;64832;45.274;5.880;2023-01-16T19:14:37;96819.72;;;19.87;49.51
76106;BME280;64832;45.274;5.880;2023-01-16T19:17:04;96808.56;;;19.89;49.55
76106;BME280;64832;45.274;5.880;2023-01-16T19:19:30;96818.22;;;19.95;49.53
76106;BME280;64832;45.274;5.880;2023-01-16T19:21:59;96818.72;;;19.97;49.51
76106;BME280;64832;45.274;5.880;2023-01-16T19:24:26;96818.22;;;19.95;49.59
76106;BME280;64832;45.274;5.880;2023-01-16T19:26:58;96813.41;;;19.92;49.44
76106;BME280;64832;45.274;5.880;2023-01-16T19:29:24;96815.28;;;19.91;49.62
76106;BME280;64832;45.274;5.880;2023-01-16T19:31:51;96818.22;;;19.95;49.63
76106;BME280;64832;45.274;5.880;2023-01-16T19:34:17;96824.69;;;19.99;49.73
76106;BME280;64832;45.274;5.880;2023-01-16T19:36:43;96831.13;;;20.03;49.66
76106;BME280;64832;45.274;5.880;2023-01-16T19:39:10;96832.97;;;20.08;49.44
76106;BME280;64832;45.274;5.880;2023-01-16T19:41:36;96830.44;;;20.11;49.66
76106;BME280;64832;45.274;5.880;2023-01-16T19:44:20;96829.84;;;20.14;49.85
76106;BME280;64832;45.274;5.880;2023-01-16T19:47:05;96835.50;;;20.18;49.83
76106;BME280;64832;45.274;5.880;2023-01-16T19:49:31;96818.41;;;20.17;49.77
76106;BME280;64832;45.274;5.880;2023-01-16T19:51:57;96819.13;;;20.23;49.88
76106;BME280;64832;45.274;5.880;2023-01-16T19:54:24;96826.97;;;20.24;50.06
76106;BME280;64832;45.274;5.880;2023-01-16T19:56:50;96815.59;;;20.22;50.08
76106;BME280;64832;45.274;5.880;2023-01-16T19:59:16;96819.88;;;20.28;49.92
76106;BME280;64832;45.274;5.880;2023-01-16T20:04:16;96803.25;;;20.30;49.83
76106;BME280;64832;45.274;5.880;2023-01-16T20:06:41;96802.66;;;20.33;49.89
76106;BME280;64832;45.274;5.880;2023-01-16T20:09:06;96800.75;;;20.33;49.82
76106;BME280;64832;45.274;5.880;2023-01-16T20:11:32;96802.38;;;20.34;49.83
76106;BME280;64832;45.274;5.880;2023-01-16T20:14:16;96794.25;;;20.34;49.85
76106;BME280;64832;45.274;5.880;2023-01-16T20:16:41;96794.25;;;20.34;49.71
76106;BME280;64832;45.274;5.880;2023-01-16T20:19:08;96788.81;;;20.34;49.67
76106;BME280;64832;45.274;5.880;2023-01-16T20:21:36;96787.69;;;20.35;49.63
76106;BME280;64832;45.274;5.880;2023-01-16T20:24:02;96794.25;;;20.34;49.83
76106;BME280;64832;45.274;5.880;2023-01-16T20:26:27;96796.63;;;20.36;49.67
76106;BME280;64832;45.274;5.880;2023-01-16T20:28:53;96786.09;;;20.34;49.85
76106;BME280;64832;45.274;5.880;2023-01-16T20:31:18;96782.25;;;20.35;49.90
76106;BME280;64832;45.274;5.880;2023-01-16T20:33:44;96773.00;;;20.36;49.67
76106;BME280;64832;45.274;5.880;2023-01-16T20:36:10;96773.00;;;20.36;50.02
76106;BME280;64832;45.274;5.880;2023-01-16T20:38:36;96770.28;;;20.36;49.75
76106;BME280;64832;45.274;5.880;2023-01-16T20:41:22;96773.22;;;20.40;49.68
76106;BME280;64832;45.274;5.880;2023-01-16T20:44:14;96767.28;;;20.38;49.66
76106;BME280;64832;45.274;5.880;2023-01-16T20:46:58;96769.19;;;20.37;49.89
76106;BME280;64832;45.274;5.880;2023-01-16T20:49:24;96768.69;;;20.35;49.76
76106;BME280;64832;45.274;5.880;2023-01-16T20:51:51;96774.91;;;20.36;49.81
76106;BME280;64832;45.274;5.880;2023-01-16T20:54:17;96772.72;;;20.38;49.69
76106;BME280;64832;45.274;5.880;2023-01-16T20:56:42;96776.53;;;20.37;49.84
76106;BME280;64832;45.274;5.880;2023-01-16T20:59:08;96761.88;;;20.38;49.74
76106;BME280;64832;45.274;5.880;2023-01-16T21:01:34;96768.38;;;20.37;49.49
76106;BME280;64832;45.274;5.880;2023-01-16T21:03:59;96765.97;;;20.35;49.30
76106;BME280;64832;45.274;5.880;2023-01-16T21:06:25;96762.75;;;20.33;49.04
76106;BME280;64832;45.274;5.880;2023-01-16T21:08:50;96763.88;;;20.32;49.16
76106;BME280;64832;45.274;5.880;2023-01-16T21:11:15;96756.00;;;20.31;48.94
76106;BME280;64832;45.274;5.880;2023-01-16T21:13:59;96752.47;;;20.30;49.00
76106;BME280;64832;45.274;5.880;2023-01-16T21:16:45;96748.97;;;20.30;48.91
76106;BME280;64832;45.274;5.880;2023-01-16T21:19:30;96754.69;;;20.28;48.73
76106;BME280;64832;45.274;5.880;2023-01-16T21:22:15;96746.06;;;20.26;48.76
76106;BME280;64832;45.274;5.880;2023-01-16T21:24:43;96749.63;;;20.22;48.73
76106;BME280;64832;45.274;5.880;2023-01-16T21:27:09;96758.38;;;20.19;48.75
76106;BME280;64832;45.274;5.880;2023-01-16T21:29:34;96741.59;;;20.17;48.69
76106;BME280;64832;45.274;5.880;2023-01-16T21:32:01;96737.56;;;20.14;48.66
76106;BME280;64832;45.274;5.880;2023-01-16T21:34:27;96731.13;;;20.10;48.47
76106;BME280;64832;45.274;5.880;2023-01-16T21:36:53;96731.72;;;20.07;48.37
76106;BME280;64832;45.274;5.880;2023-01-16T21:39:19;96736.94;;;20.04;48.27
76106;BME280;64832;45.274;5.880;2023-01-16T21:41:44;96727.50;;;20.01;48.31
76106;BME280;64832;45.274;5.880;2023-01-16T21:44:29;96727.00;;;19.99;48.54
76106;BME280;64832;45.274;5.880;2023-01-16T21:47:13;96718.03;;;19.99;48.59
76106;BME280;64832;45.274;5.880;2023-01-16T21:49:40;96720.75;;;19.99;48.28
76106;BME280;64832;45.274;5.880;2023-01-16T21:52:05;96713.22;;;19.96;48.31
76106;BME280;64832;45.274;5.880;2023-01-16T21:54:31;96714.72;;;19.88;48.36
76106;BME280;64832;45.274;5.880;2023-01-16T21:56:56;96721.53;;;19.85;48.40
76106;BME280;64832;45.274;5.880;2023-01-16T21:59:22;96716.19;;;19.80;48.31
76106;BME280;64832;45.274;5.880;2023-01-16T22:01:47;96711.66;;;19.76;48.58
